CCZ5 weather

Thorburn Airport
Thorburn, Nova Scotia, Canada

Public forecast

Using degrees Celsius for public forecast. Weather courtesy of forecast.io.

Closest aviation weather report (METAR) to Thorburn Airport

Closest report is Charlottetown Airport, 49.0 nm (90.8 km) NNW. Retrieved 2020/07/12 09:00 UTC (38 minutes ago):

CYYG 120900Z CCA 16008KT 12SM OVC004 21/21 A2973 RMK SF8 /R03 AFT 01Z/ SLP067 DENSITY ALT 1100FT

Closest aviation forecast (TAF) to Thorburn Airport

Forecast is more than 12 hours old.

Closest forecast is Charlottetown Airport, 49.0 nm (90.8 km) NNW. Retrieved 2020/07/11 20:00 UTC (14 hours ago):

TAF CYYG 111938Z 1120/1201 18015G25KT P6SM BKN030 TEMPO 1120/1124 P6SM -SHRA BKN008 OVC015 FM120000 18012G22KT P6SM OVC070 TEMPO 1200/1201 P6SM -SHRA OVC020 PROB30 1200/1201 2SM TSRA BR OVC050CB RMK NXT FCST WILL BE ISSUED AT 121045Z